sensor_id;sensor_type;location;lat;lon;timestamp;noise_LAeq;noise_LA_min;noise_LA_max;noise_LA01;noise_LA95
67324;Laerm;57667;51.438;5.968;2023-03-23T00:00:05;41.01;35.64;49.17;;
67324;Laerm;57667;51.438;5.968;2023-03-23T00:00:16;38.86;35.73;44.01;;
67324;Laerm;57667;51.438;5.968;2023-03-23T00:00:27;44.08;36.55;54.27;;
67324;Laerm;57667;51.438;5.968;2023-03-23T00:00:37;38.93;34.90;46.37;;
67324;Laerm;57667;51.438;5.968;2023-03-23T00:00:48;37.97;34.88;44.45;;
67324;Laerm;57667;51.438;5.968;2023-03-23T00:00:59;38.25;35.47;41.00;;
67324;Laerm;57667;51.438;5.968;2023-03-23T00:01:11;39.94;38.25;41.71;;
67324;Laerm;57667;51.438;5.968;2023-03-23T00:01:29;40.27;37.08;46.86;;
67324;Laerm;57667;51.438;5.968;2023-03-23T00:01:47;46.11;35.61;60.03;;
67324;Laerm;57667;51.438;5.968;2023-03-23T00:01:59;39.70;35.79;47.55;;
67324;Laerm;57667;51.438;5.968;2023-03-23T00:02:09;37.05;34.49;40.74;;
67324;Laerm;57667;51.438;5.968;2023-03-23T00:02:27;37.55;34.85;41.85;;
67324;Laerm;57667;51.438;5.968;2023-03-23T00:02:37;36.22;33.58;38.51;;
67324;Laerm;57667;51.438;5.968;2023-03-23T00:02:48;35.92;33.71;37.91;;
67324;Laerm;57667;51.438;5.968;2023-03-23T00:02:58;37.34;34.94;44.34;;
67324;Laerm;57667;51.438;5.968;2023-03-23T00:03:08;38.54;34.33;46.74;;
67324;Laerm;57667;51.438;5.968;2023-03-23T00:03:19;39.61;35.07;48.50;;
67324;Laerm;57667;51.438;5.968;2023-03-23T00:03:31;45.46;37.17;56.05;;
67324;Laerm;57667;51.438;5.968;2023-03-23T00:03:45;44.53;39.39;52.84;;
67324;Laerm;57667;51.438;5.968;2023-03-23T00:03:56;38.87;34.80;46.78;;
67324;Laerm;57667;51.438;5.968;2023-03-23T00:04:10;34.92;32.85;38.46;;
67324;Laerm;57667;51.438;5.968;2023-03-23T00:04:22;35.40;32.80;37.81;;
67324;Laerm;57667;51.438;5.968;2023-03-23T00:04:34;46.29;34.87;60.48;;
67324;Laerm;57667;51.438;5.968;2023-03-23T00:04:45;40.20;36.34;48.13;;
67324;Laerm;57667;51.438;5.968;2023-03-23T00:04:55;39.22;36.16;49.91;;
67324;Laerm;57667;51.438;5.968;2023-03-23T00:05:05;36.58;33.50;41.14;;
67324;Laerm;57667;51.438;5.968;2023-03-23T00:05:17;39.13;33.35;47.86;;
67324;Laerm;57667;51.438;5.968;2023-03-23T00:05:27;46.73;35.30;65.43;;
67324;Laerm;57667;51.438;5.968;2023-03-23T00:05:39;45.02;37.42;54.96;;
67324;Laerm;57667;51.438;5.968;2023-03-23T00:05:51;39.69;35.47;49.44;;
67324;Laerm;57667;51.438;5.968;2023-03-23T00:06:01;43.19;40.53;46.21;;
67324;Laerm;57667;51.438;5.968;2023-03-23T00:06:15;46.57;42.31;53.94;;
67324;Laerm;57667;51.438;5.968;2023-03-23T00:06:28;47.46;41.21;58.65;;
67324;Laerm;57667;51.438;5.968;2023-03-23T00:06:44;41.34;35.27;53.21;;
67324;Laerm;57667;51.438;5.968;2023-03-23T00:06:55;35.82;33.95;38.22;;
67324;Laerm;57667;51.438;5.968;2023-03-23T00:07:05;35.64;33.37;42.10;;
67324;Laerm;57667;51.438;5.968;2023-03-23T00:07:16;34.79;32.22;37.72;;
67324;Laerm;57667;51.438;5.968;2023-03-23T00:07:31;35.49;32.68;43.07;;
67324;Laerm;57667;51.438;5.968;2023-03-23T00:07:42;35.94;33.39;40.13;;
67324;Laerm;57667;51.438;5.968;2023-03-23T00:07:55;38.26;34.88;41.48;;
67324;Laerm;57667;51.438;5.968;2023-03-23T00:08:06;54.35;38.72;65.41;;
67324;Laerm;57667;51.438;5.968;2023-03-23T00:08:19;50.75;34.86;65.92;;
67324;Laerm;57667;51.438;5.968;2023-03-23T00:08:33;38.25;34.17;46.72;;
67324;Laerm;57667;51.438;5.968;2023-03-23T00:08:44;38.76;36.65;44.02;;
67324;Laerm;57667;51.438;5.968;2023-03-23T00:08:55;46.04;35.99;57.58;;
67324;Laerm;57667;51.438;5.968;2023-03-23T00:09:09;52.02;37.00;65.03;;
67324;Laerm;57667;51.438;5.968;2023-03-23T00:09:19;47.17;37.36;57.56;;
67324;Laerm;57667;51.438;5.968;2023-03-23T00:09:33;41.00;36.38;51.73;;
67324;Laerm;57667;51.438;5.968;2023-03-23T00:09:44;38.61;35.80;47.32;;
67324;Laerm;57667;51.438;5.968;2023-03-23T00:09:55;44.46;36.47;55.93;;
67324;Laerm;57667;51.438;5.968;2023-03-23T00:10:05;42.71;37.68;53.56;;
67324;Laerm;57667;51.438;5.968;2023-03-23T00:10:17;38.37;34.88;46.67;;
67324;Laerm;57667;51.438;5.968;2023-03-23T00:10:27;41.40;36.35;49.50;;
67324;Laerm;57667;51.438;5.968;2023-03-23T00:10:37;46.99;39.83;56.56;;
67324;Laerm;57667;51.438;5.968;2023-03-23T00:10:49;49.64;39.77;65.64;;
67324;Laerm;57667;51.438;5.968;2023-03-23T00:11:02;47.88;39.78;59.80;;
67324;Laerm;57667;51.438;5.968;2023-03-23T00:11:13;46.35;37.63;65.09;;
67324;Laerm;57667;51.438;5.968;2023-03-23T00:11:29;44.20;36.02;57.12;;
67324;Laerm;57667;51.438;5.968;2023-03-23T00:11:39;53.43;40.21;65.72;;
67324;Laerm;57667;51.438;5.968;2023-03-23T00:11:50;40.14;34.58;47.33;;
67324;Laerm;57667;51.438;5.968;2023-03-23T00:12:01;38.11;35.62;42.83;;
67324;Laerm;57667;51.438;5.968;2023-03-23T00:12:15;39.50;35.96;46.55;;
67324;Laerm;57667;51.438;5.968;2023-03-23T00:12:27;51.50;38.36;63.88;;
67324;Laerm;57667;51.438;5.968;2023-03-23T00:12:44;48.81;38.36;66.03;;
67324;Laerm;57667;51.438;5.968;2023-03-23T00:12:55;43.49;38.64;51.36;;
67324;Laerm;57667;51.438;5.968;2023-03-23T00:13:07;47.84;41.38;55.68;;
67324;Laerm;57667;51.438;5.968;2023-03-23T00:13:20;57.93;52.86;62.43;;
67324;Laerm;57667;51.438;5.968;2023-03-23T00:13:31;54.05;40.44;65.32;;
67324;Laerm;57667;51.438;5.968;2023-03-23T00:13:42;50.09;41.09;62.82;;
67324;Laerm;57667;51.438;5.968;2023-03-23T00:13:54;41.64;37.60;48.70;;
67324;Laerm;57667;51.438;5.968;2023-03-23T00:14:04;43.20;37.27;56.10;;
67324;Laerm;57667;51.438;5.968;2023-03-23T00:14:15;44.38;38.76;54.14;;
67324;Laerm;57667;51.438;5.968;2023-03-23T00:14:25;48.23;34.75;61.45;;
67324;Laerm;57667;51.438;5.968;2023-03-23T00:14:35;48.82;35.38;59.54;;
67324;Laerm;57667;51.438;5.968;2023-03-23T00:14:51;35.18;33.04;39.67;;
67324;Laerm;57667;51.438;5.968;2023-03-23T00:15:04;35.49;33.23;41.90;;
67324;Laerm;57667;51.438;5.968;2023-03-23T00:15:15;35.36;33.58;38.01;;
67324;Laerm;57667;51.438;5.968;2023-03-23T00:15:26;36.46;32.31;46.70;;
67324;Laerm;57667;51.438;5.968;2023-03-23T00:15:37;44.93;37.63;57.53;;
67324;Laerm;57667;51.438;5.968;2023-03-23T00:15:51;42.61;35.98;54.78;;
67324;Laerm;57667;51.438;5.968;2023-03-23T00:16:02;41.62;37.17;48.74;;
67324;Laerm;57667;51.438;5.968;2023-03-23T00:16:13;39.44;35.91;49.56;;
67324;Laerm;57667;51.438;5.968;2023-03-23T00:16:30;39.14;34.35;47.07;;
67324;Laerm;57667;51.438;5.968;2023-03-23T00:16:48;40.47;35.05;51.39;;
67324;Laerm;57667;51.438;5.968;2023-03-23T00:16:59;43.06;36.30;54.89;;
67324;Laerm;57667;51.438;5.968;2023-03-23T00:17:10;38.18;35.56;44.25;;
67324;Laerm;57667;51.438;5.968;2023-03-23T00:17:20;39.61;34.96;46.44;;
67324;Laerm;57667;51.438;5.968;2023-03-23T00:17:31;37.74;35.58;44.69;;
67324;Laerm;57667;51.438;5.968;2023-03-23T00:17:45;36.45;34.37;38.34;;
67324;Laerm;57667;51.438;5.968;2023-03-23T00:17:55;46.86;35.52;61.30;;
67324;Laerm;57667;51.438;5.968;2023-03-23T00:18:12;49.99;36.63;65.87;;
67324;Laerm;57667;51.438;5.968;2023-03-23T00:18:31;40.30;35.13;53.80;;
67324;Laerm;57667;51.438;5.968;2023-03-23T00:18:41;38.29;34.26;47.64;;
67324;Laerm;57667;51.438;5.968;2023-03-23T00:18:51;37.48;35.23;42.45;;
67324;Laerm;57667;51.438;5.968;2023-03-23T00:19:03;38.26;36.31;46.23;;
67324;Laerm;57667;51.438;5.968;2023-03-23T00:19:14;37.77;33.59;47.38;;
67324;Laerm;57667;51.438;5.968;2023-03-23T00:19:24;38.28;33.98;49.12;;
67324;Laerm;57667;51.438;5.968;2023-03-23T00:19:35;36.06;32.86;41.27;;
67324;Laerm;57667;51.438;5.968;2023-03-23T00:19:56;36.13;33.50;41.22;;
67324;Laerm;57667;51.438;5.968;2023-03-23T00:20:06;40.71;35.14;48.38;;
67324;Laerm;57667;51.438;5.968;2023-03-23T00:20:17;38.00;35.52;42.16;;
67324;Laerm;57667;51.438;5.968;2023-03-23T00:20:28;41.05;35.31;47.03;;
67324;Laerm;57667;51.438;5.968;2023-03-23T00:20:39;42.66;37.57;50.44;;
67324;Laerm;57667;51.438;5.968;2023-03-23T00:20:51;39.16;36.44;43.58;;
67324;Laerm;57667;51.438;5.968;2023-03-23T00:21:02;41.22;35.08;54.71;;
67324;Laerm;57667;51.438;5.968;2023-03-23T00:21:14;36.43;34.52;42.83;;
67324;Laerm;57667;51.438;5.968;2023-03-23T00:21:25;37.11;35.34;40.85;;
67324;Laerm;57667;51.438;5.968;2023-03-23T00:21:43;36.54;33.21;43.61;;
67324;Laerm;57667;51.438;5.968;2023-03-23T00:21:53;42.55;34.88;56.55;;
67324;Laerm;57667;51.438;5.968;2023-03-23T00:22:04;39.98;35.26;49.96;;
67324;Laerm;57667;51.438;5.968;2023-03-23T00:22:15;36.46;34.54;40.40;;
67324;Laerm;57667;51.438;5.968;2023-03-23T00:22:27;36.87;32.62;46.46;;
67324;Laerm;57667;51.438;5.968;2023-03-23T00:22:38;45.55;35.23;57.49;;
67324;Laerm;57667;51.438;5.968;2023-03-23T00:22:48;40.09;34.98;50.96;;
67324;Laerm;57667;51.438;5.968;2023-03-23T00:22:58;49.49;37.61;61.18;;
67324;Laerm;57667;51.438;5.968;2023-03-23T00:23:10;48.93;37.90;63.85;;
67324;Laerm;57667;51.438;5.968;2023-03-23T00:23:21;41.33;35.12;50.41;;
67324;Laerm;57667;51.438;5.968;2023-03-23T00:23:32;47.25;39.27;55.62;;
67324;Laerm;57667;51.438;5.968;2023-03-23T00:23:43;53.66;43.88;67.28;;
67324;Laerm;57667;51.438;5.968;2023-03-23T00:23:54;44.54;37.12;58.83;;
67324;Laerm;57667;51.438;5.968;2023-03-23T00:24:06;48.53;39.37;57.85;;
67324;Laerm;57667;51.438;5.968;2023-03-23T00:24:18;45.74;36.20;57.64;;
67324;Laerm;57667;51.438;5.968;2023-03-23T00:24:28;36.43;33.16;41.77;;
67324;Laerm;57667;51.438;5.968;2023-03-23T00:24:39;41.94;33.44;52.56;;
67324;Laerm;57667;51.438;5.968;2023-03-23T00:24:49;51.88;38.68;65.82;;
67324;Laerm;57667;51.438;5.968;2023-03-23T00:25:00;54.03;37.69;65.43;;
67324;Laerm;57667;51.438;5.968;2023-03-23T00:25:11;46.23;37.41;59.51;;
67324;Laerm;57667;51.438;5.968;2023-03-23T00:25:22;44.84;36.11;53.44;;
67324;Laerm;57667;51.438;5.968;2023-03-23T00:25:32;38.76;34.93;45.32;;
67324;Laerm;57667;51.438;5.968;2023-03-23T00:25:44;43.18;37.18;52.61;;
67324;Laerm;57667;51.438;5.968;2023-03-23T00:25:55;39.71;36.97;47.08;;
67324;Laerm;57667;51.438;5.968;2023-03-23T00:26:09;38.89;33.22;48.49;;
67324;Laerm;57667;51.438;5.968;2023-03-23T00:26:19;41.38;34.05;52.36;;
67324;Laerm;57667;51.438;5.968;2023-03-23T00:26:29;40.03;36.09;47.37;;
67324;Laerm;57667;51.438;5.968;2023-03-23T00:26:44;36.30;33.39;42.18;;
67324;Laerm;57667;51.438;5.968;2023-03-23T00:26:55;33.99;32.15;37.02;;
67324;Laerm;57667;51.438;5.968;2023-03-23T00:27:08;41.53;31.94;55.79;;
67324;Laerm;57667;51.438;5.968;2023-03-23T00:27:22;33.37;31.36;36.10;;
67324;Laerm;57667;51.438;5.968;2023-03-23T00:27:33;33.04;30.63;34.81;;
67324;Laerm;57667;51.438;5.968;2023-03-23T00:27:43;33.61;32.00;35.22;;
67324;Laerm;57667;51.438;5.968;2023-03-23T00:27:54;37.62;32.35;48.97;;
67324;Laerm;57667;51.438;5.968;2023-03-23T00:28:04;40.07;34.27;48.51;;
67324;Laerm;57667;51.438;5.968;2023-03-23T00:28:15;36.90;34.24;45.12;;
67324;Laerm;57667;51.438;5.968;2023-03-23T00:28:26;48.98;34.65;62.67;;
67324;Laerm;57667;51.438;5.968;2023-03-23T00:28:37;49.64;36.61;62.40;;
67324;Laerm;57667;51.438;5.968;2023-03-23T00:28:49;40.44;35.32;50.88;;
67324;Laerm;57667;51.438;5.968;2023-03-23T00:29:04;36.80;32.49;48.10;;
67324;Laerm;57667;51.438;5.968;2023-03-23T00:29:18;41.05;32.46;54.24;;
67324;Laerm;57667;51.438;5.968;2023-03-23T00:29:31;36.17;32.51;41.65;;
67324;Laerm;57667;51.438;5.968;2023-03-23T00:29:42;38.00;34.37;42.42;;
67324;Laerm;57667;51.438;5.968;2023-03-23T00:29:54;38.74;33.72;50.28;;
67324;Laerm;57667;51.438;5.968;2023-03-23T00:30:05;43.52;33.24;53.46;;
67324;Laerm;57667;51.438;5.968;2023-03-23T00:30:16;40.55;36.49;48.73;;
67324;Laerm;57667;51.438;5.968;2023-03-23T00:30:26;39.29;34.89;50.94;;
67324;Laerm;57667;51.438;5.968;2023-03-23T00:30:36;37.27;34.69;41.23;;
67324;Laerm;57667;51.438;5.968;2023-03-23T00:30:47;42.57;35.45;55.81;;
67324;Laerm;57667;51.438;5.968;2023-03-23T00:30:58;56.70;40.59;66.56;;
67324;Laerm;57667;51.438;5.968;2023-03-23T00:31:09;51.74;43.46;58.37;;
67324;Laerm;57667;51.438;5.968;2023-03-23T00:31:19;55.68;43.73;60.85;;
67324;Laerm;57667;51.438;5.968;2023-03-23T00:31:30;45.05;39.36;56.17;;
67324;Laerm;57667;51.438;5.968;2023-03-23T00:31:43;45.44;37.41;55.81;;
67324;Laerm;57667;51.438;5.968;2023-03-23T00:31:56;42.51;35.86;52.54;;
67324;Laerm;57667;51.438;5.968;2023-03-23T00:32:07;37.39;34.26;46.28;;
67324;Laerm;57667;51.438;5.968;2023-03-23T00:32:23;43.54;35.55;55.06;;
67324;Laerm;57667;51.438;5.968;2023-03-23T00:32:37;46.17;36.74;59.62;;
67324;Laerm;57667;51.438;5.968;2023-03-23T00:32:47;39.83;35.10;48.64;;
67324;Laerm;57667;51.438;5.968;2023-03-23T00:32:58;39.89;35.65;52.32;;
67324;Laerm;57667;51.438;5.968;2023-03-23T00:33:08;37.70;34.26;42.66;;
67324;Laerm;57667;51.438;5.968;2023-03-23T00:33:23;38.88;34.40;45.96;;
67324;Laerm;57667;51.438;5.968;2023-03-23T00:33:34;40.99;33.44;52.62;;
67324;Laerm;57667;51.438;5.968;2023-03-23T00:33:48;36.31;32.58;42.38;;
67324;Laerm;57667;51.438;5.968;2023-03-23T00:33:59;35.89;33.41;38.85;;
67324;Laerm;57667;51.438;5.968;2023-03-23T00:34:11;42.88;36.75;52.37;;
67324;Laerm;57667;51.438;5.968;2023-03-23T00:34:22;46.35;38.60;53.77;;
67324;Laerm;57667;51.438;5.968;2023-03-23T00:34:34;42.64;35.65;54.23;;
67324;Laerm;57667;51.438;5.968;2023-03-23T00:34:45;37.32;34.71;45.50;;
67324;Laerm;57667;51.438;5.968;2023-03-23T00:34:57;38.54;34.41;47.26;;
67324;Laerm;57667;51.438;5.968;2023-03-23T00:35:10;38.33;35.09;43.66;;
67324;Laerm;57667;51.438;5.968;2023-03-23T00:35:21;36.73;34.28;39.53;;
67324;Laerm;57667;51.438;5.968;2023-03-23T00:35:31;38.38;35.12;41.65;;
67324;Laerm;57667;51.438;5.968;2023-03-23T00:35:41;46.53;35.82;57.03;;
67324;Laerm;57667;51.438;5.968;2023-03-23T00:35:54;48.04;42.28;57.79;;
67324;Laerm;57667;51.438;5.968;2023-03-23T00:36:05;48.83;39.40;61.32;;
67324;Laerm;57667;51.438;5.968;2023-03-23T00:36:15;43.87;39.17;52.57;;
67324;Laerm;57667;51.438;5.968;2023-03-23T00:36:27;39.46;35.63;45.71;;
67324;Laerm;57667;51.438;5.968;2023-03-23T00:36:38;38.65;34.78;46.59;;
67324;Laerm;57667;51.438;5.968;2023-03-23T00:36:53;42.26;36.98;51.11;;
67324;Laerm;57667;51.438;5.968;2023-03-23T00:37:06;45.18;34.24;60.14;;
67324;Laerm;57667;51.438;5.968;2023-03-23T00:37:17;39.64;34.60;48.46;;
67324;Laerm;57667;51.438;5.968;2023-03-23T00:37:28;46.50;35.35;58.92;;
67324;Laerm;57667;51.438;5.968;2023-03-23T00:37:38;35.82;33.59;41.52;;
67324;Laerm;57667;51.438;5.968;2023-03-23T00:37:48;43.24;35.25;59.55;;
67324;Laerm;57667;51.438;5.968;2023-03-23T00:37:59;40.78;36.24;47.82;;
67324;Laerm;57667;51.438;5.968;2023-03-23T00:38:09;38.13;34.22;46.45;;
67324;Laerm;57667;51.438;5.968;2023-03-23T00:38:23;37.62;32.72;44.31;;
67324;Laerm;57667;51.438;5.968;2023-03-23T00:38:34;34.82;31.92;39.40;;
67324;Laerm;57667;51.438;5.968;2023-03-23T00:38:44;34.78;31.55;40.24;;
67324;Laerm;57667;51.438;5.968;2023-03-23T00:38:57;35.07;33.01;38.58;;
67324;Laerm;57667;51.438;5.968;2023-03-23T00:39:08;34.86;32.80;38.32;;
67324;Laerm;57667;51.438;5.968;2023-03-23T00:39:18;37.85;33.92;44.31;;
67324;Laerm;57667;51.438;5.968;2023-03-23T00:39:29;39.41;34.00;50.33;;
67324;Laerm;57667;51.438;5.968;2023-03-23T00:39:39;34.79;32.26;41.85;;
67324;Laerm;57667;51.438;5.968;2023-03-23T00:39:56;35.93;33.25;41.21;;
67324;Laerm;57667;51.438;5.968;2023-03-23T00:40:07;36.06;33.48;38.26;;
67324;Laerm;57667;51.438;5.968;2023-03-23T00:40:20;38.68;35.02;44.10;;
67324;Laerm;57667;51.438;5.968;2023-03-23T00:40:30;37.08;34.93;43.78;;
67324;Laerm;57667;51.438;5.968;2023-03-23T00:40:41;37.01;34.29;45.29;;
67324;Laerm;57667;51.438;5.968;2023-03-23T00:40:51;36.37;34.06;39.38;;
67324;Laerm;57667;51.438;5.968;2023-03-23T00:41:02;36.37;34.63;40.15;;
67324;Laerm;57667;51.438;5.968;2023-03-23T00:41:12;36.83;33.45;41.78;;
67324;Laerm;57667;51.438;5.968;2023-03-23T00:41:25;34.65;32.62;38.29;;
67324;Laerm;57667;51.438;5.968;2023-03-23T00:41:39;37.27;32.62;41.81;;
67324;Laerm;57667;51.438;5.968;2023-03-23T00:41:49;38.56;35.75;42.40;;
67324;Laerm;57667;51.438;5.968;2023-03-23T00:42:00;44.17;36.74;54.95;;
67324;Laerm;57667;51.438;5.968;2023-03-23T00:42:10;42.10;33.97;54.26;;
67324;Laerm;57667;51.438;5.968;2023-03-23T00:42:22;39.20;34.79;48.53;;
67324;Laerm;57667;51.438;5.968;2023-03-23T00:42:33;36.61;33.36;40.11;;
67324;Laerm;57667;51.438;5.968;2023-03-23T00:42:47;39.84;34.30;52.54;;
67324;Laerm;57667;51.438;5.968;2023-03-23T00:42:58;39.95;36.59;50.17;;
67324;Laerm;57667;51.438;5.968;2023-03-23T00:43:09;39.08;35.37;49.36;;
67324;Laerm;57667;51.438;5.968;2023-03-23T00:43:24;35.14;33.30;39.38;;
67324;Laerm;57667;51.438;5.968;2023-03-23T00:43:34;34.69;32.33;38.59;;
67324;Laerm;57667;51.438;5.968;2023-03-23T00:43:49;36.37;33.15;43.80;;
67324;Laerm;57667;51.438;5.968;2023-03-23T00:44:01;35.05;32.67;38.34;;
67324;Laerm;57667;51.438;5.968;2023-03-23T00:44:12;33.73;32.05;35.84;;
67324;Laerm;57667;51.438;5.968;2023-03-23T00:44:30;38.67;32.68;50.10;;
67324;Laerm;57667;51.438;5.968;2023-03-23T00:44:41;37.04;33.73;44.84;;
67324;Laerm;57667;51.438;5.968;2023-03-23T00:44:53;36.90;33.27;46.40;;
67324;Laerm;57667;51.438;5.968;2023-03-23T00:45:10;37.63;32.20;50.53;;
67324;Laerm;57667;51.438;5.968;2023-03-23T00:45:21;39.58;35.35;45.10;;
67324;Laerm;57667;51.438;5.968;2023-03-23T00:45:34;41.68;34.18;54.22;;
67324;Laerm;57667;51.438;5.968;2023-03-23T00:45:44;45.81;39.31;52.07;;
67324;Laerm;57667;51.438;5.968;2023-03-23T00:45:59;47.34;38.44;53.18;;
67324;Laerm;57667;51.438;5.968;2023-03-23T00:46:10;38.76;34.87;42.28;;
67324;Laerm;57667;51.438;5.968;2023-03-23T00:46:21;38.24;34.77;45.81;;
67324;Laerm;57667;51.438;5.968;2023-03-23T00:46:32;37.16;33.77;47.70;;
67324;Laerm;57667;51.438;5.968;2023-03-23T00:46:46;37.55;31.59;52.61;;
67324;Laerm;57667;51.438;5.968;2023-03-23T00:46:58;35.46;32.71;39.87;;
67324;Laerm;57667;51.438;5.968;2023-03-23T00:47:09;40.83;35.70;51.39;;
67324;Laerm;57667;51.438;5.968;2023-03-23T00:47:20;49.56;39.14;64.00;;
67324;Laerm;57667;51.438;5.968;2023-03-23T00:47:30;45.59;38.10;54.99;;
67324;Laerm;57667;51.438;5.968;2023-03-23T00:47:41;39.76;36.70;45.99;;
67324;Laerm;57667;51.438;5.968;2023-03-23T00:47:56;42.89;37.64;50.20;;
67324;Laerm;57667;51.438;5.968;2023-03-23T00:48:11;74.16;49.33;78.90;;
67324;Laerm;57667;51.438;5.968;2023-03-23T00:48:24;73.97;63.98;79.04;;
67324;Laerm;57667;51.438;5.968;2023-03-23T00:48:35;58.12;49.54;64.56;;
67324;Laerm;57667;51.438;5.968;2023-03-23T00:48:46;55.83;46.72;63.94;;
67324;Laerm;57667;51.438;5.968;2023-03-23T00:48:56;48.99;38.96;61.16;;
67324;Laerm;57667;51.438;5.968;2023-03-23T00:49:07;43.92;36.75;62.40;;
67324;Laerm;57667;51.438;5.968;2023-03-23T00:49:20;46.92;35.03;58.46;;
67324;Laerm;57667;51.438;5.968;2023-03-23T00:49:34;38.56;33.91;44.40;;
67324;Laerm;57667;51.438;5.968;2023-03-23T00:49:44;42.16;35.68;51.81;;
67324;Laerm;57667;51.438;5.968;2023-03-23T00:49:55;39.26;36.58;43.17;;
67324;Laerm;57667;51.438;5.968;2023-03-23T00:50:08;46.43;37.88;58.73;;
67324;Laerm;57667;51.438;5.968;2023-03-23T00:50:19;40.57;35.22;48.66;;
67324;Laerm;57667;51.438;5.968;2023-03-23T00:50:29;41.26;37.27;52.71;;
67324;Laerm;57667;51.438;5.968;2023-03-23T00:50:40;40.07;37.98;45.12;;
67324;Laerm;57667;51.438;5.968;2023-03-23T00:50:50;42.06;38.69;49.92;;
67324;Laerm;57667;51.438;5.968;2023-03-23T00:51:01;43.65;37.48;57.73;;
67324;Laerm;57667;51.438;5.968;2023-03-23T00:51:16;43.11;36.76;57.42;;
67324;Laerm;57667;51.438;5.968;2023-03-23T00:51:27;40.90;34.11;55.40;;
67324;Laerm;57667;51.438;5.968;2023-03-23T00:51:37;36.41;34.19;40.35;;
67324;Laerm;57667;51.438;5.968;2023-03-23T00:51:47;37.54;34.90;41.58;;
67324;Laerm;57667;51.438;5.968;2023-03-23T00:51:58;41.25;35.30;55.75;;
67324;Laerm;57667;51.438;5.968;2023-03-23T00:52:09;36.71;33.66;44.48;;
67324;Laerm;57667;51.438;5.968;2023-03-23T00:52:20;37.38;34.91;41.93;;
67324;Laerm;57667;51.438;5.968;2023-03-23T00:52:30;35.85;32.29;38.96;;
67324;Laerm;57667;51.438;5.968;2023-03-23T00:52:41;34.12;32.88;36.16;;
67324;Laerm;57667;51.438;5.968;2023-03-23T00:52:51;34.20;32.13;37.72;;
67324;Laerm;57667;51.438;5.968;2023-03-23T00:53:02;36.75;34.25;39.88;;
67324;Laerm;57667;51.438;5.968;2023-03-23T00:53:14;39.37;36.53;50.04;;
67324;Laerm;57667;51.438;5.968;2023-03-23T00:53:25;39.70;34.18;50.58;;
67324;Laerm;57667;51.438;5.968;2023-03-23T00:53:35;35.92;33.32;43.07;;
67324;Laerm;57667;51.438;5.968;2023-03-23T00:53:46;36.86;33.41;41.59;;
67324;Laerm;57667;51.438;5.968;2023-03-23T00:53:56;37.25;33.67;50.65;;
67324;Laerm;57667;51.438;5.968;2023-03-23T00:54:07;36.91;34.33;41.00;;
67324;Laerm;57667;51.438;5.968;2023-03-23T00:54:17;56.34;35.06;71.55;;
67324;Laerm;57667;51.438;5.968;2023-03-23T00:54:28;57.78;38.68;68.42;;
67324;Laerm;57667;51.438;5.968;2023-03-23T00:54:38;42.01;37.00;49.94;;
67324;Laerm;57667;51.438;5.968;2023-03-23T00:54:49;39.53;34.93;48.27;;
67324;Laerm;57667;51.438;5.968;2023-03-23T00:54:59;38.25;33.71;49.02;;
67324;Laerm;57667;51.438;5.968;2023-03-23T00:55:09;34.94;32.71;37.93;;
67324;Laerm;57667;51.438;5.968;2023-03-23T00:55:20;37.05;32.81;45.17;;
67324;Laerm;57667;51.438;5.968;2023-03-23T00:55:30;34.83;33.11;38.10;;
67324;Laerm;57667;51.438;5.968;2023-03-23T00:55:41;35.45;33.43;38.46;;
67324;Laerm;57667;51.438;5.968;2023-03-23T00:55:52;44.33;33.84;59.41;;
67324;Laerm;57667;51.438;5.968;2023-03-23T00:56:02;47.11;36.95;54.54;;
67324;Laerm;57667;51.438;5.968;2023-03-23T00:56:13;43.80;37.56;53.99;;
67324;Laerm;57667;51.438;5.968;2023-03-23T00:56:23;39.70;35.90;50.40;;
67324;Laerm;57667;51.438;5.968;2023-03-23T00:56:34;37.98;35.46;42.55;;
67324;Laerm;57667;51.438;5.968;2023-03-23T00:56:44;38.35;35.97;41.98;;
67324;Laerm;57667;51.438;5.968;2023-03-23T00:56:56;37.46;35.02;45.39;;
67324;Laerm;57667;51.438;5.968;2023-03-23T00:57:06;37.95;34.87;43.21;;
67324;Laerm;57667;51.438;5.968;2023-03-23T00:57:16;38.79;34.13;47.48;;
67324;Laerm;57667;51.438;5.968;2023-03-23T00:57:27;38.85;34.21;45.40;;
67324;Laerm;57667;51.438;5.968;2023-03-23T00:57:38;41.09;33.55;49.09;;
67324;Laerm;57667;51.438;5.968;2023-03-23T00:57:48;50.62;39.91;62.60;;
67324;Laerm;57667;51.438;5.968;2023-03-23T00:58:00;44.11;38.92;54.01;;
67324;Laerm;57667;51.438;5.968;2023-03-23T00:58:11;46.55;37.94;61.54;;
67324;Laerm;57667;51.438;5.968;2023-03-23T00:58:21;41.79;36.95;51.10;;
67324;Laerm;57667;51.438;5.968;2023-03-23T00:58:32;53.99;40.28;65.23;;
67324;Laerm;57667;51.438;5.968;2023-03-23T00:58:42;48.54;37.16;61.76;;
67324;Laerm;57667;51.438;5.968;2023-03-23T00:58:53;40.33;35.66;51.13;;
67324;Laerm;57667;51.438;5.968;2023-03-23T00:59:03;46.32;38.68;58.76;;
67324;Laerm;57667;51.438;5.968;2023-03-23T00:59:13;45.76;39.31;58.83;;
67324;Laerm;57667;51.438;5.968;2023-03-23T00:59:24;44.73;40.21;52.05;;
67324;Laerm;57667;51.438;5.968;2023-03-23T00:59:34;44.84;40.40;50.40;;
67324;Laerm;57667;51.438;5.968;2023-03-23T00:59:45;45.60;38.45;57.63;;
67324;Laerm;57667;51.438;5.968;2023-03-23T00:59:55;47.60;39.64;61.42;;
67324;Laerm;57667;51.438;5.968;2023-03-23T01:00:05;51.34;42.73;68.17;;
67324;Laerm;57667;51.438;5.968;2023-03-23T01:00:20;56.44;41.57;69.20;;
67324;Laerm;57667;51.438;5.968;2023-03-23T01:00:32;43.22;38.55;52.06;;
67324;Laerm;57667;51.438;5.968;2023-03-23T01:00:42;51.43;40.17;59.93;;
67324;Laerm;57667;51.438;5.968;2023-03-23T01:00:53;47.75;38.52;56.32;;
67324;Laerm;57667;51.438;5.968;2023-03-23T01:01:03;47.91;36.44;58.81;;
67324;Laerm;57667;51.438;5.968;2023-03-23T01:01:14;40.36;36.88;46.49;;
67324;Laerm;57667;51.438;5.968;2023-03-23T01:01:25;38.69;33.32;45.19;;
67324;Laerm;57667;51.438;5.968;2023-03-23T01:01:35;43.73;38.53;51.24;;
67324;Laerm;57667;51.438;5.968;2023-03-23T01:01:46;40.77;37.57;47.96;;
67324;Laerm;57667;51.438;5.968;2023-03-23T01:01:56;38.63;35.46;43.61;;
67324;Laerm;57667;51.438;5.968;2023-03-23T01:02:07;36.90;33.53;41.43;;
67324;Laerm;57667;51.438;5.968;2023-03-23T01:02:17;35.91;33.51;39.67;;
67324;Laerm;57667;51.438;5.968;2023-03-23T01:02:28;34.77;33.17;38.31;;
67324;Laerm;57667;51.438;5.968;2023-03-23T01:02:38;35.60;34.01;38.03;;
67324;Laerm;57667;51.438;5.968;2023-03-23T01:02:51;36.86;34.49;42.07;;
67324;Laerm;57667;51.438;5.968;2023-03-23T01:03:02;47.75;35.39;59.71;;
67324;Laerm;57667;51.438;5.968;2023-03-23T01:03:13;56.63;46.29;66.34;;
67324;Laerm;57667;51.438;5.968;2023-03-23T01:03:28;48.53;38.21;58.41;;
67324;Laerm;57667;51.438;5.968;2023-03-23T01:03:39;48.17;40.14;57.42;;
67324;Laerm;57667;51.438;5.968;2023-03-23T01:03:49;50.13;40.22;61.59;;
67324;Laerm;57667;51.438;5.968;2023-03-23T01:04:00;41.32;37.69;49.78;;
67324;Laerm;57667;51.438;5.968;2023-03-23T01:04:10;41.18;37.39;46.57;;
67324;Laerm;57667;51.438;5.968;2023-03-23T01:04:22;39.53;36.51;45.35;;
67324;Laerm;57667;51.438;5.968;2023-03-23T01:04:32;40.12;36.63;46.38;;
67324;Laerm;57667;51.438;5.968;2023-03-23T01:04:46;48.78;37.63;59.19;;
67324;Laerm;57667;51.438;5.968;2023-03-23T01:05:02;49.38;43.61;62.77;;